EGSS/STN METAR and TAF weather

Enter ICAO airport designator
Station Type Date Time Source
EGSS METAR 2018/04/27 00:50 UTC NOAA

EGSS 270050Z AUTO 20004KT 9999 NCD 06/05 Q1013


Station Type Date Time Source
EGSS Decoded METAR 2018/04/27 00:50 UTC NOAA

Stansted Airport, United Kingdom (EGSS) 51-53N 000-14E 0M
Apr 26, 2018 - 08:50 PM EDT / 2018.04.27 0050 UTC
Wind: from the SSW (200 degrees) at 5 MPH (4 KT):0
Visibility: greater than 7 mile(s):0
Temperature: 42 F (6 C)
Dew Point: 41 F (5 C)
Relative Humidity: 93%
Pressure (altimeter): 29.91 in. Hg (1013 hPa)
ob: EGSS 270050Z AUTO 20004KT 9999 NCD 06/05 Q1013
cycle: 1

Station Type Date Time Source
EGSS TAF 2018/04/26 18:15 UTC NOAA

TAF EGSS 261655Z 2618/2724 26010KT 9999 SCT025
BECMG 2621/2624 20006KT
TEMPO 2704/2724 8000 -RA PROB40
TEMPO 2704/2721 4000 RA BKN010
BECMG 2706/2709 11010KT
TEMPO 2721/2724 BKN010 PROB40
TEMPO 2721/2724 2000 BR BKN003


Example: see airport list